createdAt,value
2018-02-09T00:01:28.174Z,85.10
2018-02-09T00:03:55.781Z,85.10
2018-02-09T00:06:23.386Z,85.10
2018-02-09T00:08:51.008Z,85.40
2018-02-09T00:11:18.548Z,85.60
2018-02-09T00:13:46.150Z,85.50
2018-02-09T00:16:13.754Z,85.50
2018-02-09T00:18:41.339Z,85.50
2018-02-09T00:21:08.938Z,85.70
2018-02-09T00:23:36.554Z,85.70
2018-02-09T00:26:04.143Z,85.60
2018-02-09T00:28:31.729Z,85.60
2018-02-09T00:30:59.331Z,85.70
2018-02-09T00:33:26.961Z,85.60
2018-02-09T00:35:54.527Z,85.50
2018-02-09T00:38:22.113Z,85.50
2018-02-09T00:40:49.747Z,85.40
2018-02-09T00:43:17.342Z,85.40
2018-02-09T00:45:45.350Z,85.30
2018-02-09T00:48:12.943Z,85.30
2018-02-09T00:50:40.506Z,85.40
2018-02-09T00:53:08.058Z,85.50
2018-02-09T00:55:35.637Z,85.50
2018-02-09T00:58:03.250Z,85.60
2018-02-09T01:00:30.829Z,85.50
2018-02-09T01:02:58.394Z,85.40
2018-02-09T01:05:26.000Z,85.40
2018-02-09T01:07:53.592Z,85.50
2018-02-09T01:10:21.209Z,85.50
2018-02-09T01:12:48.802Z,85.50
2018-02-09T01:15:16.430Z,85.50
2018-02-09T01:17:44.010Z,85.60
2018-02-09T01:20:11.617Z,85.60
2018-02-09T01:22:39.186Z,85.50
2018-02-09T01:25:06.991Z,85.30
2018-02-09T01:27:34.586Z,85.30
2018-02-09T01:30:02.216Z,85.40
2018-02-09T01:32:29.787Z,85.70
2018-02-09T01:34:57.406Z,85.60
2018-02-09T01:37:25.018Z,85.70
2018-02-09T01:39:52.620Z,85.80
2018-02-09T01:42:20.250Z,85.80
2018-02-09T01:44:47.875Z,85.70
2018-02-09T01:47:15.459Z,85.70
2018-02-09T01:49:43.062Z,85.80
2018-02-09T01:52:10.635Z,86.30
2018-02-09T01:54:38.221Z,86.30
2018-02-09T01:57:05.824Z,86.30
2018-02-09T01:59:33.402Z,86.40
2018-02-09T02:02:01.228Z,86.40
2018-02-09T02:04:28.807Z,86.30
2018-02-09T02:06:56.836Z,86.00
2018-02-09T02:09:24.388Z,86.00
2018-02-09T02:11:51.979Z,86.20
2018-02-09T02:14:19.589Z,86.20
2018-02-09T02:16:47.466Z,86.20
2018-02-09T02:19:15.061Z,86.20
2018-02-09T02:21:42.658Z,86.20
2018-02-09T02:24:10.219Z,86.70
2018-02-09T02:26:37.808Z,87.60
2018-02-09T02:29:05.391Z,87.30
2018-02-09T02:31:32.982Z,86.70
2018-02-09T02:34:00.572Z,86.40
2018-02-09T02:36:28.366Z,86.30
2018-02-09T02:38:55.981Z,86.20
2018-02-09T02:41:23.619Z,86.20
2018-02-09T02:43:51.558Z,86.20
2018-02-09T02:46:19.209Z,86.20
2018-02-09T02:48:46.800Z,86.20
2018-02-09T02:51:14.391Z,86.20
2018-02-09T02:53:42.013Z,86.00
2018-02-09T02:56:09.605Z,86.20
2018-02-09T02:58:37.208Z,86.00
2018-02-09T03:01:04.820Z,86.00
2018-02-09T03:03:32.606Z,86.00
2018-02-09T03:06:00.265Z,86.00
2018-02-09T03:08:28.189Z,86.00
2018-02-09T03:10:55.772Z,86.20
2018-02-09T03:13:23.384Z,86.20
2018-02-09T03:15:50.964Z,86.20
2018-02-09T03:18:18.538Z,86.20
2018-02-09T03:20:46.225Z,86.20
2018-02-09T03:23:13.864Z,86.20
2018-02-09T03:25:41.451Z,86.20
2018-02-09T03:28:09.043Z,86.00
2018-02-09T03:30:36.637Z,85.90
2018-02-09T03:33:04.280Z,85.90
2018-02-09T03:35:31.850Z,85.80
2018-02-09T03:37:59.451Z,85.80
2018-02-09T03:40:27.054Z,85.80
2018-02-09T03:42:54.678Z,85.90
2018-02-09T03:45:22.301Z,86.00
2018-02-09T03:47:49.910Z,86.00
2018-02-09T03:50:17.471Z,86.00
2018-02-09T03:52:45.079Z,86.00
2018-02-09T03:55:12.651Z,86.20
2018-02-09T03:57:40.618Z,86.20
2018-02-09T04:00:08.256Z,86.30
2018-02-09T04:02:35.830Z,86.30
2018-02-09T04:05:03.434Z,86.30
2018-02-09T04:07:31.028Z,86.40
2018-02-09T04:09:58.926Z,86.40
2018-02-09T04:12:26.516Z,86.50
2018-02-09T04:14:54.126Z,86.50
2018-02-09T04:17:21.704Z,86.70
2018-02-09T04:19:49.303Z,86.70
2018-02-09T04:22:16.890Z,86.80
2018-02-09T04:24:44.479Z,86.80
2018-02-09T04:27:12.120Z,86.80
2018-02-09T04:29:39.730Z,86.70
2018-02-09T04:32:07.324Z,86.70
2018-02-09T04:34:34.920Z,86.80
2018-02-09T04:37:02.538Z,86.80
2018-02-09T04:39:30.111Z,86.80
2018-02-09T04:41:57.748Z,86.90
2018-02-09T04:44:25.336Z,86.90
2018-02-09T04:46:52.910Z,86.90
2018-02-09T04:49:20.558Z,86.90
2018-02-09T04:51:48.183Z,86.90
2018-02-09T04:54:21.550Z,86.90
2018-02-09T04:56:49.124Z,86.90
2018-02-09T04:59:16.751Z,86.80
2018-02-09T05:01:44.344Z,86.80
2018-02-09T05:04:11.980Z,86.70
2018-02-09T05:06:39.613Z,86.70
2018-02-09T05:09:07.184Z,86.70
2018-02-09T05:11:34.780Z,86.60
2018-02-09T05:14:02.334Z,86.70
2018-02-09T05:16:29.927Z,86.90
2018-02-09T05:18:57.517Z,87.20
2018-02-09T05:21:25.124Z,87.30
2018-02-09T05:23:52.736Z,87.20
2018-02-09T05:26:20.549Z,87.20
2018-02-09T05:28:48.197Z,87.00
2018-02-09T05:31:17.146Z,86.80
2018-02-09T05:33:44.793Z,86.80
2018-02-09T05:36:12.424Z,86.70
2018-02-09T05:38:39.990Z,86.70
2018-02-09T05:41:07.573Z,86.50
2018-02-09T05:43:35.160Z,86.50
2018-02-09T05:46:02.779Z,86.40
2018-02-09T05:48:30.424Z,86.40
2018-02-09T05:50:58.031Z,86.40
2018-02-09T05:53:25.607Z,86.40
2018-02-09T05:55:53.218Z,86.30
2018-02-09T05:58:20.799Z,86.40
2018-02-09T06:00:48.403Z,86.50
2018-02-09T06:03:16.409Z,86.40
2018-02-09T06:05:43.962Z,86.40
2018-02-09T06:08:11.547Z,86.30
2018-02-09T06:10:39.175Z,86.40
2018-02-09T06:13:06.786Z,86.40
2018-02-09T06:15:34.407Z,86.50
2018-02-09T06:18:01.983Z,86.50
2018-02-09T06:20:29.567Z,86.50
2018-02-09T06:22:57.197Z,86.50
2018-02-09T06:25:24.850Z,86.60
2018-02-09T06:27:52.451Z,86.60
2018-02-09T06:30:20.051Z,86.60
2018-02-09T06:32:47.672Z,86.60
2018-02-09T06:35:15.248Z,86.60
2018-02-09T06:37:42.868Z,86.50
2018-02-09T06:40:10.453Z,86.70
2018-02-09T06:42:38.452Z,86.70
2018-02-09T06:45:06.793Z,86.70
2018-02-09T06:47:34.470Z,86.70
2018-02-09T06:50:15.297Z,86.70
2018-02-09T06:52:54.907Z,86.70
2018-02-09T06:55:23.323Z,86.60
2018-02-09T06:57:51.795Z,86.50
2018-02-09T07:00:19.422Z,86.40
2018-02-09T07:02:47.687Z,86.50
2018-02-09T07:05:15.338Z,86.60
2018-02-09T07:07:42.941Z,86.60
2018-02-09T07:10:10.528Z,86.70
2018-02-09T07:12:38.256Z,86.70
2018-02-09T07:15:05.882Z,86.70
2018-02-09T07:17:33.464Z,86.70
2018-02-09T07:20:01.072Z,86.70
2018-02-09T07:22:28.709Z,86.80
2018-02-09T07:24:56.387Z,86.70
2018-02-09T07:27:23.978Z,86.70
2018-02-09T07:29:51.576Z,86.70
2018-02-09T07:32:19.177Z,86.70
2018-02-09T07:34:47.170Z,86.60
2018-02-09T07:37:14.745Z,86.60
2018-02-09T07:39:42.361Z,86.20
2018-02-09T07:42:09.951Z,86.20
2018-02-09T07:44:37.570Z,86.20
2018-02-09T07:47:05.191Z,85.90
2018-02-09T07:49:32.784Z,85.90
2018-02-09T07:52:00.363Z,86.20
2018-02-09T07:54:27.964Z,86.20
2018-02-09T07:56:56.380Z,86.30
2018-02-09T07:59:23.971Z,86.20
2018-02-09T08:01:51.616Z,86.00
2018-02-09T08:04:19.536Z,86.00
2018-02-09T08:06:47.152Z,85.90
2018-02-09T08:09:14.752Z,85.90
2018-02-09T08:11:48.526Z,85.70
2018-02-09T08:14:16.200Z,85.70
2018-02-09T08:16:43.808Z,85.60
2018-02-09T08:19:11.414Z,85.50
2018-02-09T08:21:38.984Z,85.50
2018-02-09T08:24:06.577Z,85.40
2018-02-09T08:26:34.144Z,85.20
2018-02-09T08:29:01.779Z,85.10
2018-02-09T08:31:29.385Z,84.80
2018-02-09T08:33:57.028Z,84.50
2018-02-09T08:36:24.620Z,84.50
2018-02-09T08:38:52.206Z,84.50
2018-02-09T08:41:19.825Z,84.20
2018-02-09T08:43:47.396Z,83.90
2018-02-09T08:46:15.198Z,84.20
2018-02-09T08:48:42.876Z,84.30
2018-02-09T08:51:10.531Z,84.00
2018-02-09T08:53:38.123Z,84.00
2018-02-09T08:56:06.142Z,84.00
2018-02-09T08:58:33.707Z,84.00
2018-02-09T09:01:01.507Z,83.70
2018-02-09T09:03:29.099Z,83.20
2018-02-09T09:05:56.909Z,83.40
2018-02-09T09:08:24.579Z,83.20
2018-02-09T09:10:52.305Z,83.50
2018-02-09T09:13:19.892Z,83.70
2018-02-09T09:15:47.507Z,83.80
2018-02-09T09:18:17.016Z,84.30
2018-02-09T09:20:44.611Z,83.60
2018-02-09T09:23:12.249Z,82.80
2018-02-09T09:25:39.855Z,83.00
2018-02-09T09:28:07.476Z,83.10
2018-02-09T09:30:35.146Z,83.00
2018-02-09T09:33:02.740Z,83.00
2018-02-09T09:35:31.263Z,83.00
2018-02-09T09:37:58.896Z,82.40
2018-02-09T09:40:26.508Z,82.30
2018-02-09T09:42:54.175Z,82.30
2018-02-09T09:45:22.009Z,82.20
2018-02-09T09:47:49.623Z,81.70
2018-02-09T09:50:17.282Z,81.60
2018-02-09T09:52:45.624Z,81.70
2018-02-09T09:55:13.660Z,81.90
2018-02-09T09:57:41.475Z,82.00
2018-02-09T10:00:09.855Z,81.50
2018-02-09T10:02:40.652Z,82.00
2018-02-09T10:05:08.266Z,81.60
2018-02-09T10:07:36.310Z,81.30
2018-02-09T10:10:04.523Z,81.00
2018-02-09T10:12:32.366Z,81.40
2018-02-09T10:15:00.372Z,81.20
2018-02-09T10:17:28.129Z,81.20
2018-02-09T10:19:56.278Z,81.10
2018-02-09T10:22:30.739Z,80.70
2018-02-09T10:24:58.504Z,80.50
2018-02-09T10:27:27.455Z,80.20
2018-02-09T10:29:55.068Z,80.00
2018-02-09T10:32:22.710Z,80.20
2018-02-09T10:34:55.030Z,80.60
2018-02-09T10:37:26.520Z,80.30
2018-02-09T10:39:54.115Z,80.20
2018-02-09T10:42:21.771Z,80.60
2018-02-09T10:44:49.403Z,80.30
2018-02-09T10:47:17.039Z,80.30
2018-02-09T10:49:44.671Z,79.20
2018-02-09T10:52:12.394Z,78.10
2018-02-09T10:54:39.956Z,78.50
2018-02-09T10:57:07.791Z,78.30
2018-02-09T10:59:35.391Z,78.20
2018-02-09T11:02:02.975Z,78.40
2018-02-09T11:04:30.595Z,78.70
2018-02-09T11:06:58.218Z,79.20
2018-02-09T11:09:31.734Z,78.10
2018-02-09T11:12:01.963Z,78.70
2018-02-09T11:14:29.588Z,78.40
2018-02-09T11:16:57.270Z,78.20
2018-02-09T11:19:24.858Z,78.10
2018-02-09T11:22:03.567Z,78.60
2018-02-09T11:24:31.153Z,78.90
2018-02-09T11:26:58.731Z,78.80
2018-02-09T11:29:26.310Z,78.80
2018-02-09T11:31:54.004Z,78.40
2018-02-09T11:34:21.632Z,78.20
2018-02-09T11:36:49.220Z,78.00
2018-02-09T11:39:16.814Z,78.20
2018-02-09T11:41:44.387Z,78.60
2018-02-09T11:44:12.201Z,77.10
2018-02-09T11:46:39.774Z,77.40
2018-02-09T11:49:07.397Z,77.70
2018-02-09T11:51:35.344Z,78.10
2018-02-09T11:54:03.358Z,78.20
2018-02-09T11:56:30.930Z,78.20
2018-02-09T11:58:59.123Z,78.10
2018-02-09T12:01:26.750Z,78.20
2018-02-09T12:04:04.372Z,78.20
2018-02-09T12:06:32.204Z,78.30
2018-02-09T12:08:59.797Z,78.10
2018-02-09T12:11:27.377Z,78.00
2018-02-09T12:13:55.008Z,78.20
2018-02-09T12:16:23.579Z,78.10
2018-02-09T12:19:01.451Z,78.10
2018-02-09T12:21:29.049Z,78.90
2018-02-09T12:23:56.636Z,78.20
2018-02-09T12:26:24.293Z,77.90
2018-02-09T12:28:52.255Z,77.90
2018-02-09T12:31:19.860Z,77.90
2018-02-09T12:33:47.447Z,77.80
2018-02-09T12:36:15.096Z,78.20
2018-02-09T12:38:42.652Z,78.00
2018-02-09T12:41:10.287Z,78.00
2018-02-09T12:43:37.954Z,77.90
2018-02-09T12:46:05.730Z,78.00
2018-02-09T12:48:33.332Z,78.20
2018-02-09T12:51:01.015Z,78.10
2018-02-09T12:53:28.651Z,78.00
2018-02-09T12:55:57.105Z,77.80
2018-02-09T12:58:24.675Z,77.70
2018-02-09T13:00:52.287Z,77.80
2018-02-09T13:03:19.924Z,77.80
2018-02-09T13:05:47.927Z,77.30
2018-02-09T13:08:15.769Z,77.30
2018-02-09T13:10:43.384Z,77.30
2018-02-09T13:13:10.954Z,77.60
2018-02-09T13:15:38.581Z,77.70
2018-02-09T13:18:06.136Z,77.70
2018-02-09T13:20:33.764Z,77.90
2018-02-09T13:23:13.412Z,77.90
2018-02-09T13:25:41.013Z,78.30
2018-02-09T13:28:08.595Z,78.40
2018-02-09T13:30:36.734Z,78.30
2018-02-09T13:33:15.922Z,78.30
2018-02-09T13:35:44.561Z,78.40
2018-02-09T13:38:18.160Z,78.40
2018-02-09T13:40:46.259Z,78.50
2018-02-09T13:43:14.045Z,78.60
2018-02-09T13:45:41.898Z,78.60
2018-02-09T13:48:11.211Z,78.00
2018-02-09T13:50:38.917Z,78.20
2018-02-09T13:53:06.741Z,78.30
2018-02-09T13:55:34.300Z,78.50
2018-02-09T13:58:01.941Z,78.10
2018-02-09T14:00:29.552Z,78.60
2018-02-09T14:02:57.138Z,78.50
2018-02-09T14:05:24.783Z,78.60
2018-02-09T14:07:52.384Z,78.50
2018-02-09T14:10:20.076Z,78.40
2018-02-09T14:12:49.855Z,78.30
2018-02-09T14:15:17.480Z,78.30
2018-02-09T14:17:45.168Z,78.70
2018-02-09T14:20:12.759Z,78.90
2018-02-09T14:22:42.144Z,79.30
2018-02-09T14:25:09.745Z,79.20
2018-02-09T14:27:44.163Z,79.40
2018-02-09T14:30:16.748Z,79.10
2018-02-09T14:32:44.807Z,79.60
2018-02-09T14:35:12.391Z,79.60
2018-02-09T14:37:42.924Z,79.40
2018-02-09T14:40:10.557Z,79.50
2018-02-09T14:42:38.267Z,79.80
2018-02-09T14:45:05.880Z,79.70
2018-02-09T14:47:33.568Z,79.50
2018-02-09T14:50:01.320Z,79.50
2018-02-09T14:52:28.899Z,79.80
2018-02-09T14:54:59.235Z,79.70
2018-02-09T14:57:27.733Z,79.70
2018-02-09T14:59:55.865Z,79.70
2018-02-09T15:02:24.045Z,79.90
2018-02-09T15:04:51.745Z,79.90
2018-02-09T15:07:19.349Z,79.70
2018-02-09T15:09:47.499Z,79.90
2018-02-09T15:12:31.883Z,79.90
2018-02-09T15:14:59.507Z,80.00
2018-02-09T15:17:27.070Z,80.30
2018-02-09T15:19:54.880Z,80.50
2018-02-09T15:22:22.487Z,80.50
2018-02-09T15:24:50.092Z,80.30
2018-02-09T15:27:19.671Z,80.20
2018-02-09T15:29:47.708Z,80.30
2018-02-09T15:32:22.263Z,80.30
2018-02-09T15:34:51.829Z,80.30
2018-02-09T15:37:21.323Z,80.30
2018-02-09T15:39:49.938Z,80.30
2018-02-09T15:42:20.146Z,80.50
2018-02-09T15:44:47.800Z,80.30
2018-02-09T15:47:15.404Z,80.30
2018-02-09T15:49:43.050Z,80.30
2018-02-09T15:52:10.691Z,80.50
2018-02-09T15:54:38.323Z,80.30
2018-02-09T15:57:05.934Z,79.80
2018-02-09T15:59:33.961Z,79.90
2018-02-09T16:02:02.825Z,79.90
2018-02-09T16:04:31.295Z,80.00
2018-02-09T16:07:00.442Z,80.30
2018-02-09T16:09:29.113Z,80.50
2018-02-09T16:11:57.755Z,80.70
2018-02-09T16:14:25.664Z,80.90
2018-02-09T16:16:54.640Z,81.10
2018-02-09T16:19:23.550Z,81.20
2018-02-09T16:21:51.227Z,81.20
2018-02-09T16:24:19.919Z,81.20
2018-02-09T16:26:47.533Z,81.20
2018-02-09T16:29:16.586Z,81.30
2018-02-09T16:31:44.750Z,81.30
2018-02-09T16:34:12.379Z,81.30
2018-02-09T16:36:40.860Z,81.30
2018-02-09T16:39:08.481Z,81.30
2018-02-09T16:41:36.411Z,81.30
2018-02-09T16:44:06.392Z,81.40
2018-02-09T16:46:34.092Z,81.30
2018-02-09T16:49:02.536Z,81.50
2018-02-09T16:51:30.300Z,81.90
2018-02-09T16:54:00.001Z,82.00
2018-02-09T16:56:27.796Z,82.10
2018-02-09T16:58:55.412Z,82.20
2018-02-09T17:04:16.755Z,82.00
2018-02-09T17:06:44.812Z,81.90
2018-02-09T17:09:12.392Z,81.90
2018-02-09T17:11:40.039Z,82.20
2018-02-09T17:14:08.421Z,82.30
2018-02-09T17:16:36.184Z,82.40
2018-02-09T17:19:03.867Z,82.40
2018-02-09T17:21:31.712Z,82.40
2018-02-09T17:24:00.829Z,82.40
2018-02-09T17:26:28.470Z,82.50
2018-02-09T17:28:56.523Z,82.40
2018-02-09T17:31:24.142Z,82.50
2018-02-09T17:33:52.232Z,82.50
2018-02-09T17:36:19.863Z,82.60
2018-02-09T17:38:48.286Z,82.60
2018-02-09T17:41:15.904Z,82.70
2018-02-09T17:43:44.137Z,82.70
2018-02-09T17:46:11.843Z,83.20
2018-02-09T17:48:39.525Z,83.10
2018-02-09T17:51:07.503Z,83.40
2018-02-09T17:53:35.392Z,83.50
2018-02-09T17:56:03.461Z,83.40
2018-02-09T17:58:31.105Z,83.50
2018-02-09T18:00:58.729Z,83.50
2018-02-09T18:03:26.330Z,83.50
2018-02-09T18:05:53.936Z,83.60
2018-02-09T18:08:21.527Z,83.60
2018-02-09T18:10:49.117Z,83.60
2018-02-09T18:13:16.723Z,83.60
2018-02-09T18:15:44.438Z,83.60
2018-02-09T18:18:12.052Z,83.50
2018-02-09T18:20:39.691Z,83.40
2018-02-09T18:23:07.325Z,83.50
2018-02-09T18:25:34.979Z,83.60
2018-02-09T18:28:03.232Z,83.60
2018-02-09T18:30:30.870Z,83.70
2018-02-09T18:32:58.577Z,83.80
2018-02-09T18:35:26.232Z,83.90
2018-02-09T18:37:53.898Z,83.90
2018-02-09T18:40:21.505Z,83.90
2018-02-09T18:42:49.134Z,83.90
2018-02-09T18:45:16.760Z,83.90
2018-02-09T18:47:44.363Z,83.80
2018-02-09T18:50:11.946Z,83.90
2018-02-09T18:52:39.995Z,84.00
2018-02-09T18:55:07.596Z,84.00
2018-02-09T18:57:35.235Z,84.00
2018-02-09T19:00:02.853Z,84.00
2018-02-09T19:02:30.789Z,84.00
2018-02-09T19:04:58.393Z,84.00
2018-02-09T19:07:26.039Z,84.00
2018-02-09T19:09:53.635Z,84.20
2018-02-09T19:12:21.240Z,84.20
2018-02-09T19:14:48.896Z,84.00
2018-02-09T19:17:16.473Z,84.00
2018-02-09T19:19:44.068Z,84.00
2018-02-09T19:22:11.655Z,84.00
2018-02-09T19:24:39.310Z,83.90
2018-02-09T19:27:06.885Z,83.80
2018-02-09T19:29:34.524Z,83.70
2018-02-09T19:32:02.133Z,83.70
2018-02-09T19:34:29.727Z,83.70
2018-02-09T19:36:57.328Z,83.80
2018-02-09T19:39:24.959Z,83.80
2018-02-09T19:41:52.515Z,83.90
2018-02-09T19:44:20.148Z,83.90
2018-02-09T19:46:47.745Z,83.90
2018-02-09T19:49:15.815Z,84.00
2018-02-09T19:51:44.321Z,84.20
2018-02-09T19:54:19.931Z,84.20
2018-02-09T19:56:47.834Z,84.00
2018-02-09T19:59:15.575Z,84.20
2018-02-09T20:01:43.169Z,84.20
2018-02-09T20:04:11.039Z,84.20
2018-02-09T20:06:40.743Z,84.20
2018-02-09T20:09:08.355Z,84.30
2018-02-09T20:11:36.216Z,84.40
2018-02-09T20:14:04.905Z,84.30
2018-02-09T20:16:32.533Z,84.40
2018-02-09T20:19:13.261Z,84.50
2018-02-09T20:21:40.823Z,84.50
2018-02-09T20:24:08.423Z,84.60
2018-02-09T20:26:36.019Z,84.60
2018-02-09T20:29:03.615Z,84.60
2018-02-09T20:31:31.200Z,84.60
2018-02-09T20:33:58.787Z,84.80
2018-02-09T20:36:26.398Z,85.00
2018-02-09T20:38:53.950Z,85.00
2018-02-09T20:41:21.558Z,85.00
2018-02-09T20:43:49.159Z,85.00
2018-02-09T20:46:16.764Z,85.00
2018-02-09T20:48:44.394Z,84.90
2018-02-09T20:51:11.987Z,84.90
2018-02-09T20:53:40.767Z,84.80
2018-02-09T20:56:08.783Z,84.90
2018-02-09T20:58:36.413Z,84.90
2018-02-09T21:01:04.006Z,84.90
2018-02-09T21:03:31.598Z,84.90
2018-02-09T21:05:59.212Z,84.90
2018-02-09T21:08:26.819Z,84.90
2018-02-09T21:10:54.478Z,85.00
2018-02-09T21:13:22.976Z,85.00
2018-02-09T21:15:50.607Z,85.10
2018-02-09T21:18:18.261Z,85.20
2018-02-09T21:20:45.902Z,86.30
2018-02-09T21:23:16.693Z,86.60
2018-02-09T21:25:44.308Z,86.20
2018-02-09T21:28:11.925Z,85.60
2018-02-09T21:30:39.515Z,85.50
2018-02-09T21:33:07.171Z,85.40
2018-02-09T21:35:34.767Z,85.30
2018-02-09T21:38:02.376Z,85.10
2018-02-09T21:40:29.950Z,85.10
2018-02-09T21:42:57.551Z,85.20
2018-02-09T21:45:25.137Z,85.20
2018-02-09T21:47:52.780Z,85.20
2018-02-09T21:50:20.386Z,85.00
2018-02-09T21:52:48.252Z,85.10
2018-02-09T21:55:15.888Z,85.10
2018-02-09T21:57:43.543Z,85.10
2018-02-09T22:00:11.151Z,85.20
2018-02-09T22:02:38.817Z,85.30
2018-02-09T22:05:07.271Z,85.20
2018-02-09T22:07:34.873Z,85.20
2018-02-09T22:10:03.172Z,85.40
2018-02-09T22:12:32.991Z,85.50
2018-02-09T22:15:02.132Z,85.70
2018-02-09T22:17:31.581Z,85.90
2018-02-09T22:19:59.871Z,86.00
2018-02-09T22:22:28.776Z,85.80
2018-02-09T22:24:58.447Z,85.80
2018-02-09T22:27:29.596Z,85.80
2018-02-09T22:29:58.405Z,85.80
2018-02-09T22:32:27.636Z,85.90
2018-02-09T22:34:57.602Z,85.90
2018-02-09T22:37:25.277Z,85.80
2018-02-09T22:39:52.850Z,86.00
2018-02-09T22:42:20.439Z,86.00
2018-02-09T22:44:48.052Z,86.00
2018-02-09T22:47:15.632Z,86.20
2018-02-09T22:49:43.499Z,86.20
2018-02-09T22:52:11.051Z,85.80
2018-02-09T22:54:38.649Z,85.60
2018-02-09T22:57:06.264Z,85.60
2018-02-09T22:59:33.899Z,85.90
2018-02-09T23:02:01.481Z,86.00
2018-02-09T23:04:29.785Z,86.00
2018-02-09T23:06:57.438Z,86.00
2018-02-09T23:09:25.076Z,86.00
2018-02-09T23:11:52.656Z,86.00
2018-02-09T23:14:20.500Z,86.20
2018-02-09T23:16:48.091Z,86.20
2018-02-09T23:19:15.731Z,86.30
2018-02-09T23:21:43.324Z,86.30
2018-02-09T23:24:11.126Z,86.40
2018-02-09T23:26:38.719Z,86.60
2018-02-09T23:29:06.567Z,86.70
2018-02-09T23:31:34.180Z,86.80
2018-02-09T23:34:02.177Z,86.90
2018-02-09T23:36:29.775Z,86.90
2018-02-09T23:38:57.415Z,87.00
2018-02-09T23:41:24.980Z,87.10
2018-02-09T23:43:52.548Z,87.20
2018-02-09T23:46:20.164Z,87.20
2018-02-09T23:48:47.747Z,87.20
2018-02-09T23:51:15.357Z,87.20
2018-02-09T23:53:43.363Z,87.20
2018-02-09T23:56:10.962Z,87.20
2018-02-09T23:58:38.553Z,87.20
